createdAt,value
2023-02-16T00:02:14.772Z,34.13
2023-02-16T00:07:16.559Z,30.13
2023-02-16T00:12:39.864Z,34.63
2023-02-16T00:17:41.594Z,31.40
2023-02-16T00:22:43.810Z,30.45
2023-02-16T00:27:45.606Z,32.72
2023-02-16T00:32:47.517Z,29.40
2023-02-16T00:37:49.666Z,28.38
2023-02-16T00:42:51.449Z,28.88
2023-02-16T00:47:54.192Z,35.92
2023-02-16T00:52:58.448Z,32.75
2023-02-16T00:58:11.760Z,31.55
2023-02-16T01:03:19.266Z,32.28
2023-02-16T01:08:59.426Z,33.67
2023-02-16T01:14:01.318Z,35.53
2023-02-16T01:19:03.411Z,31.40
2023-02-16T01:24:05.597Z,32.03
2023-02-16T01:29:07.855Z,26.10
2023-02-16T01:34:10.314Z,24.25
2023-02-16T01:39:14.779Z,27.02
2023-02-16T01:44:27.475Z,24.88
2023-02-16T01:49:29.285Z,27.17
2023-02-16T01:54:50.966Z,24.38
2023-02-16T01:59:55.848Z,28.58
2023-02-16T02:05:22.176Z,34.13
2023-02-16T02:10:39.336Z,29.13
2023-02-16T02:15:41.187Z,29.33
2023-02-16T02:21:27.652Z,33.47
2023-02-16T02:26:49.186Z,31.90
2023-02-16T02:32:05.048Z,34.13
2023-02-16T02:37:22.959Z,36.10
2023-02-16T02:42:53.178Z,35.45
2023-02-16T02:47:55.711Z,32.42
2023-02-16T02:53:03.508Z,33.70
2023-02-16T02:58:25.112Z,34.03
2023-02-16T03:03:33.079Z,28.80
2023-02-16T03:08:38.146Z,26.00
2023-02-16T03:13:45.933Z,31.67
2023-02-16T03:19:07.634Z,29.83
2023-02-16T03:24:32.297Z,32.05
2023-02-16T03:29:36.013Z,28.13
2023-02-16T03:34:37.992Z,27.27
2023-02-16T03:39:58.454Z,27.02
2023-02-16T03:45:00.633Z,25.42
2023-02-16T03:50:02.493Z,25.73
2023-02-16T03:55:04.504Z,27.63
2023-02-16T04:00:07.255Z,26.60
2023-02-16T04:05:14.863Z,30.15
2023-02-16T04:10:17.042Z,30.58
2023-02-16T04:15:22.056Z,31.30
2023-02-16T04:20:27.559Z,36.60
2023-02-16T04:25:29.414Z,29.88
2023-02-16T04:30:32.211Z,33.08
2023-02-16T04:35:34.098Z,28.77
2023-02-16T04:40:35.909Z,26.15
2023-02-16T04:45:37.674Z,27.13
2023-02-16T04:50:39.487Z,26.30
2023-02-16T04:55:46.720Z,27.27
2023-02-16T05:00:48.523Z,29.95
2023-02-16T05:05:50.355Z,36.30
2023-02-16T05:11:10.577Z,32.92
2023-02-16T05:16:12.422Z,29.33
2023-02-16T05:21:40.367Z,29.70
2023-02-16T05:31:43.994Z,41.22
2023-02-16T05:36:45.802Z,28.40
2023-02-16T05:41:47.731Z,26.15
2023-02-16T05:46:49.794Z,27.63
2023-02-16T05:51:51.959Z,25.75
2023-02-16T05:56:53.798Z,27.88
2023-02-16T06:01:55.560Z,27.98
2023-02-16T06:06:57.290Z,29.35
2023-02-16T06:11:59.041Z,31.85
2023-02-16T06:17:01.480Z,32.47
2023-02-16T06:22:03.294Z,29.50
2023-02-16T06:27:05.517Z,28.08
2023-02-16T06:32:07.520Z,27.98
2023-02-16T06:37:09.317Z,29.65
2023-02-16T06:42:11.125Z,24.92
2023-02-16T06:47:12.903Z,31.48
2023-02-16T06:52:14.648Z,30.85
2023-02-16T06:57:16.503Z,24.67
2023-02-16T07:02:18.268Z,43.90
2023-02-16T07:07:20.135Z,28.80
2023-02-16T07:12:21.917Z,26.90
2023-02-16T07:17:24.790Z,30.42
2023-02-16T07:22:26.660Z,29.80
2023-02-16T07:27:28.418Z,51.55
2023-02-16T07:32:30.679Z,38.35
2023-02-16T07:37:32.495Z,54.30
2023-02-16T07:42:34.476Z,47.90
2023-02-16T07:47:38.303Z,40.17
2023-02-16T07:52:40.128Z,59.08
2023-02-16T07:57:42.103Z,33.17
2023-02-16T08:02:43.967Z,32.70
2023-02-16T08:07:46.813Z,42.47
2023-02-16T08:12:49.865Z,37.60
2023-02-16T08:17:51.656Z,34.97
2023-02-16T08:22:54.714Z,35.53
2023-02-16T08:27:56.482Z,32.25
2023-02-16T08:33:01.016Z,35.67
2023-02-16T08:38:02.841Z,35.53
2023-02-16T08:43:04.606Z,33.33
2023-02-16T08:48:06.682Z,30.90
2023-02-16T08:53:08.792Z,32.92
2023-02-16T08:58:10.587Z,33.63
2023-02-16T09:03:12.374Z,29.48
2023-02-16T09:08:14.371Z,33.13
2023-02-16T09:13:16.329Z,35.70
2023-02-16T09:18:18.221Z,34.22
2023-02-16T09:23:21.949Z,35.00
2023-02-16T09:28:23.743Z,34.22
2023-02-16T09:33:26.208Z,31.52
2023-02-16T09:38:28.297Z,35.88
2023-02-16T09:44:07.019Z,29.40
2023-02-16T09:49:40.758Z,28.17
2023-02-16T09:55:01.407Z,28.20
2023-02-16T10:00:16.293Z,28.15
2023-02-16T10:05:23.398Z,30.63
2023-02-16T10:10:32.820Z,32.97
2023-02-16T10:15:37.570Z,28.40
2023-02-16T10:20:43.487Z,31.75
2023-02-16T10:25:55.564Z,38.08
2023-02-16T10:31:14.903Z,31.77
2023-02-16T10:36:32.935Z,52.28
2023-02-16T10:41:44.176Z,32.72
2023-02-16T10:46:54.050Z,32.55
2023-02-16T10:51:57.208Z,32.03
2023-02-16T10:57:07.373Z,34.92
2023-02-16T11:02:23.583Z,33.35
2023-02-16T11:07:28.301Z,34.17
2023-02-16T11:12:38.467Z,31.20
2023-02-16T11:18:08.052Z,34.42
2023-02-16T11:23:22.992Z,32.78
2023-02-16T11:28:34.161Z,38.85
2023-02-16T11:33:37.764Z,33.58
2023-02-16T11:38:39.699Z,36.83
2023-02-16T11:43:42.686Z,35.85
2023-02-16T11:48:45.516Z,35.38
2023-02-16T11:54:04.457Z,34.58
2023-02-16T11:59:23.305Z,34.53
2023-02-16T12:04:46.170Z,34.25
2023-02-16T12:10:10.026Z,40.60
2023-02-16T12:15:14.553Z,36.22
2023-02-16T12:21:09.987Z,37.20
2023-02-16T12:26:28.415Z,38.28
2023-02-16T12:32:07.344Z,34.63
2023-02-16T12:37:36.387Z,34.72
2023-02-16T12:42:54.298Z,35.63
2023-02-16T12:48:01.602Z,37.30
2023-02-16T12:53:27.589Z,37.13
2023-02-16T12:58:42.429Z,39.08
2023-02-16T13:03:59.131Z,36.92
2023-02-16T13:09:26.030Z,37.67
2023-02-16T13:14:31.632Z,38.28
2023-02-16T13:19:33.387Z,37.58
2023-02-16T13:24:35.095Z,40.38
2023-02-16T13:29:53.479Z,42.05
2023-02-16T13:35:29.910Z,41.83
2023-02-16T13:40:41.516Z,42.78
2023-02-16T13:45:46.886Z,41.00
2023-02-16T13:50:59.740Z,36.63
2023-02-16T13:56:29.930Z,42.28
2023-02-16T14:01:31.945Z,40.83
2023-02-16T14:06:39.998Z,41.38
2023-02-16T14:11:54.027Z,42.65
2023-02-16T14:16:56.189Z,42.95
2023-02-16T14:22:11.846Z,43.55
2023-02-16T14:27:13.626Z,44.95
2023-02-16T14:32:38.572Z,44.00
2023-02-16T14:37:51.246Z,46.95
2023-02-16T14:42:57.034Z,41.67
2023-02-16T14:48:07.720Z,45.20
2023-02-16T14:53:37.279Z,41.83
2023-02-16T14:58:54.429Z,42.85
2023-02-16T15:03:58.012Z,40.17
2023-02-16T15:09:13.432Z,46.92
2023-02-16T15:14:15.932Z,45.45
2023-02-16T15:19:23.826Z,51.35
2023-02-16T15:24:25.855Z,42.38
2023-02-16T15:29:29.315Z,44.40
2023-02-16T15:34:34.907Z,46.60
2023-02-16T15:39:49.744Z,53.10
2023-02-16T15:44:58.072Z,51.20
2023-02-16T15:50:11.878Z,54.72
2023-02-16T15:55:14.041Z,49.97
2023-02-16T16:00:19.463Z,45.55
2023-02-16T16:05:28.137Z,53.03
2023-02-16T16:10:32.972Z,47.03
2023-02-16T16:15:41.616Z,50.97
2023-02-16T16:20:44.508Z,62.33
2023-02-16T16:25:48.747Z,50.33
2023-02-16T16:31:09.876Z,49.50
2023-02-16T16:36:12.409Z,48.10
2023-02-16T16:41:28.220Z,56.25
2023-02-16T16:46:33.655Z,86.57
2023-02-16T16:51:42.462Z,60.30
2023-02-16T16:56:46.556Z,59.03
2023-02-16T17:01:53.716Z,41.85
2023-02-16T17:11:58.620Z,52.78
2023-02-16T17:17:00.457Z,49.47
2023-02-16T17:22:02.279Z,50.72
2023-02-16T17:27:04.081Z,47.25
2023-02-16T17:32:05.859Z,43.00
2023-02-16T17:37:07.818Z,54.75
2023-02-16T17:42:12.696Z,56.63
2023-02-16T17:47:16.721Z,53.25
2023-02-16T17:52:18.510Z,63.42
2023-02-16T17:57:20.384Z,58.25
2023-02-16T18:02:22.122Z,57.83
2023-02-16T18:07:23.967Z,57.05
2023-02-16T18:12:28.142Z,48.03
2023-02-16T18:17:30.247Z,54.42
2023-02-16T18:22:32.393Z,55.15
2023-02-16T18:27:34.167Z,52.10
2023-02-16T18:32:36.429Z,70.40
2023-02-16T18:37:38.706Z,43.75
2023-02-16T18:42:40.575Z,43.03
2023-02-16T18:47:45.035Z,41.78
2023-02-16T18:52:47.624Z,45.78
2023-02-16T18:57:49.406Z,50.10
2023-02-16T19:02:51.380Z,52.38
2023-02-16T19:07:53.286Z,44.80
2023-02-16T19:12:55.108Z,54.78
2023-02-16T19:17:56.890Z,51.35
2023-02-16T19:22:58.812Z,49.15
2023-02-16T19:28:00.585Z,41.55
2023-02-16T19:33:02.663Z,44.40
2023-02-16T19:38:04.451Z,42.10
2023-02-16T19:43:06.346Z,37.53
2023-02-16T19:48:08.205Z,47.72
2023-02-16T19:53:10.016Z,46.17
2023-02-16T19:58:11.782Z,37.78
2023-02-16T20:03:13.868Z,39.45
2023-02-16T20:08:15.655Z,39.15
2023-02-16T20:13:17.417Z,38.75
2023-02-16T20:18:19.299Z,41.92
2023-02-16T20:23:21.166Z,41.88
2023-02-16T20:28:24.461Z,42.90
2023-02-16T20:33:26.203Z,40.30
2023-02-16T20:38:28.000Z,41.40
2023-02-16T20:43:30.407Z,40.60
2023-02-16T20:48:32.838Z,35.42
2023-02-16T20:53:34.965Z,37.83
2023-02-16T20:58:37.037Z,39.33
2023-02-16T21:03:38.936Z,33.67
2023-02-16T21:08:40.815Z,35.90
2023-02-16T21:13:43.688Z,41.85
2023-02-16T21:18:45.849Z,37.60
2023-02-16T21:23:50.843Z,38.20
2023-02-16T21:28:53.096Z,38.40
2023-02-16T21:33:55.040Z,39.25
2023-02-16T21:38:56.865Z,38.85
2023-02-16T21:44:07.549Z,43.38
2023-02-16T21:49:18.283Z,42.95
2023-02-16T21:54:40.077Z,38.53
2023-02-16T21:59:41.938Z,36.10
2023-02-16T22:04:43.814Z,35.22
2023-02-16T22:09:46.370Z,32.70
2023-02-16T22:14:48.128Z,33.22
2023-02-16T22:19:50.358Z,31.42
2023-02-16T22:24:52.117Z,32.83
2023-02-16T22:29:53.907Z,31.48
2023-02-16T22:34:55.738Z,32.25
2023-02-16T22:39:57.491Z,30.35
2023-02-16T22:44:59.258Z,29.33
2023-02-16T22:50:00.992Z,30.13
2023-02-16T22:55:02.843Z,34.35
2023-02-16T23:00:08.754Z,23.05
2023-02-16T23:05:10.574Z,29.90
2023-02-16T23:10:12.322Z,25.35
2023-02-16T23:15:14.080Z,28.13
2023-02-16T23:20:15.949Z,27.20
2023-02-16T23:25:32.876Z,22.80
2023-02-16T23:30:34.739Z,29.67
2023-02-16T23:35:39.018Z,29.73
2023-02-16T23:40:42.191Z,30.45
2023-02-16T23:45:44.877Z,33.15
2023-02-16T23:50:46.818Z,32.97
2023-02-16T23:56:16.298Z,35.75
